Tropical Cyclones
[Index]
Main Index Home Page Stock Weather Photos Extreme Storms Discussion Storm News and Storm Chasing Reports Tropical Cyclones / Hurricanes / Typhoons Weather Data and Links Wild Fires / Bushfires Weather Observation Techniques Weather Picture Catalogue Tornado Pictures and Reports Stock Video Footage and DVDs for sale
Season 1978-1979 Tropical Cyclone DORA Track Map
Season 1978-1979 Summaries: [BoM-AU] [JTWC-AU] [JTWC-SIO] [JTWC-SPAC] [JTWC-SH]
<<- Previous TC | JTWC 1978-1979 Season | Next TC ->>

click for intensity scale information  Lat/long Grid: Show Hide

 Date Labels: Show Hide

Joint Typhoon Warning Centre Cyclone Data

Name: DORA

04 Feb 1979 06:00 UTC to 14 Feb 1979 06:00 UTC

    date/time    lat    long     hPa   cat  kts
1979-02-04 06   19.1    41.2                              
1979-02-04 12   19.2    41.6                              
1979-02-04 18   19.4    41.9                              
1979-02-05 00   19.6    42.2                              
1979-02-05 06   19.9    42.4                              
1979-02-05 12   20.0    42.6                              
1979-02-05 18   20.2    42.8                              
1979-02-06 00   20.4    42.9                              
1979-02-06 06   20.7    43.1                              
1979-02-06 12   20.9    43.3                              
1979-02-06 18   21.1    43.6                              
1979-02-07 00   21.8    43.8                              
1979-02-07 06   22.2    43.9                              
1979-02-07 12   21.9    43.3                              
1979-02-07 18   21.6    42.5                              
1979-02-08 00   21.3    42.2                              
1979-02-08 06   21.0    42.0                              
1979-02-08 12   20.9    42.0                              
1979-02-08 18   20.9    41.9                              
1979-02-09 00   20.7    41.8                              
1979-02-09 06   20.5    41.7                              
1979-02-09 12   20.3    41.7                              
1979-02-09 18   20.1    41.7                              
1979-02-10 00   20.0    41.7                              
1979-02-10 06   19.8    41.6                              
1979-02-10 12   19.0    41.7                              
1979-02-10 18   18.0    42.0                              
1979-02-11 00   17.2    42.5                              
1979-02-11 06   16.9    43.0                              
1979-02-11 12   17.1    43.4                              
1979-02-11 18   17.4    43.8                              
1979-02-12 00   17.7    44.1                              
1979-02-12 06   18.1    44.2                              
1979-02-12 12   18.6    44.2                              
1979-02-12 18   19.0    44.2                              
1979-02-13 00   19.3    44.2                              
1979-02-13 06   19.4    44.1                              
1979-02-13 12   19.5    43.4                              
1979-02-13 18   19.6    42.5                              
1979-02-14 00   19.7    42.5                              
1979-02-14 06   19.9    43.0                              
Winds are 1-min average.

Tropical cyclone tracks developed by Michael Bath using data from the Joint Typhoon Warning Centre Best Tracks and Google Maps.


[Australian Severe Weather index] [Copyright Notice] [Email Contacts] [Search This Site] [Privacy Policy]
Document: tropical_cyclone_dora.htm Updated: 18 September 2016